sensor_id;sensor_type;location;lat;lon;timestamp;P1;durP1;ratioP1;P2;durP2;ratioP2
74833;SDS011;63361;52.384;20.930;2023-05-10T00:00:08;11.53;;;5.90;;
74833;SDS011;63361;52.384;20.930;2023-05-10T00:02:34;13.27;;;5.97;;
74833;SDS011;63361;52.384;20.930;2023-05-10T00:05:00;11.60;;;5.77;;
74833;SDS011;63361;52.384;20.930;2023-05-10T00:07:26;12.32;;;6.07;;
74833;SDS011;63361;52.384;20.930;2023-05-10T00:09:51;13.40;;;6.13;;
74833;SDS011;63361;52.384;20.930;2023-05-10T00:12:17;14.70;;;6.60;;
74833;SDS011;63361;52.384;20.930;2023-05-10T00:14:42;13.70;;;6.03;;
74833;SDS011;63361;52.384;20.930;2023-05-10T00:17:07;15.03;;;6.73;;
74833;SDS011;63361;52.384;20.930;2023-05-10T00:19:33;12.00;;;5.83;;
74833;SDS011;63361;52.384;20.930;2023-05-10T00:21:58;14.90;;;6.03;;
74833;SDS011;63361;52.384;20.930;2023-05-10T00:24:23;12.70;;;6.40;;
74833;SDS011;63361;52.384;20.930;2023-05-10T00:26:49;13.27;;;5.97;;
74833;SDS011;63361;52.384;20.930;2023-05-10T00:29:14;11.00;;;6.07;;
74833;SDS011;63361;52.384;20.930;2023-05-10T00:31:39;14.23;;;6.03;;
74833;SDS011;63361;52.384;20.930;2023-05-10T00:34:05;11.83;;;6.07;;
74833;SDS011;63361;52.384;20.930;2023-05-10T00:36:30;10.23;;;5.63;;
74833;SDS011;63361;52.384;20.930;2023-05-10T00:38:56;14.90;;;6.38;;
74833;SDS011;63361;52.384;20.930;2023-05-10T00:41:21;12.80;;;5.83;;
74833;SDS011;63361;52.384;20.930;2023-05-10T00:43:46;12.90;;;5.73;;
74833;SDS011;63361;52.384;20.930;2023-05-10T00:46:12;12.13;;;6.23;;
74833;SDS011;63361;52.384;20.930;2023-05-10T00:48:40;13.02;;;6.15;;
74833;SDS011;63361;52.384;20.930;2023-05-10T00:51:05;11.27;;;5.83;;
74833;SDS011;63361;52.384;20.930;2023-05-10T00:53:31;14.67;;;5.77;;
74833;SDS011;63361;52.384;20.930;2023-05-10T00:55:57;12.80;;;5.73;;
74833;SDS011;63361;52.384;20.930;2023-05-10T00:58:24;11.93;;;5.97;;
74833;SDS011;63361;52.384;20.930;2023-05-10T01:00:52;12.38;;;5.90;;
74833;SDS011;63361;52.384;20.930;2023-05-10T01:03:19;12.73;;;6.22;;
74833;SDS011;63361;52.384;20.930;2023-05-10T01:05:45;11.70;;;5.77;;
74833;SDS011;63361;52.384;20.930;2023-05-10T01:08:11;12.10;;;5.50;;
74833;SDS011;63361;52.384;20.930;2023-05-10T01:10:36;12.60;;;5.87;;
74833;SDS011;63361;52.384;20.930;2023-05-10T01:13:02;15.37;;;6.33;;
74833;SDS011;63361;52.384;20.930;2023-05-10T01:15:28;9.77;;;4.80;;
74833;SDS011;63361;52.384;20.930;2023-05-10T01:17:54;13.77;;;5.80;;
74833;SDS011;63361;52.384;20.930;2023-05-10T01:20:21;11.70;;;5.78;;
74833;SDS011;63361;52.384;20.930;2023-05-10T01:29:11;12.07;;;5.50;;
74833;SDS011;63361;52.384;20.930;2023-05-10T01:35:05;12.10;;;5.97;;
74833;SDS011;63361;52.384;20.930;2023-05-10T01:37:28;17.90;;;5.97;;
74833;SDS011;63361;52.384;20.930;2023-05-10T01:40:08;12.80;;;5.65;;
74833;SDS011;63361;52.384;20.930;2023-05-10T01:42:59;10.82;;;5.15;;
74833;SDS011;63361;52.384;20.930;2023-05-10T01:45:32;14.37;;;5.40;;
74833;SDS011;63361;52.384;20.930;2023-05-10T01:48:06;8.50;;;4.75;;
74833;SDS011;63361;52.384;20.930;2023-05-10T01:50:35;12.35;;;5.88;;
74833;SDS011;63361;52.384;20.930;2023-05-10T01:53:02;17.52;;;9.75;;
74833;SDS011;63361;52.384;20.930;2023-05-10T01:55:32;15.73;;;8.40;;
74833;SDS011;63361;52.384;20.930;2023-05-10T01:58:08;13.97;;;6.30;;
74833;SDS011;63361;52.384;20.930;2023-05-10T02:00:39;13.85;;;6.03;;
74833;SDS011;63361;52.384;20.930;2023-05-10T02:03:07;13.02;;;5.95;;
74833;SDS011;63361;52.384;20.930;2023-05-10T02:05:35;11.15;;;5.30;;
74833;SDS011;63361;52.384;20.930;2023-05-10T02:08:02;13.68;;;5.55;;
74833;SDS011;63361;52.384;20.930;2023-05-10T02:10:31;11.60;;;5.77;;
74833;SDS011;63361;52.384;20.930;2023-05-10T02:12:58;11.38;;;5.57;;
74833;SDS011;63361;52.384;20.930;2023-05-10T02:15:25;10.73;;;5.20;;
74833;SDS011;63361;52.384;20.930;2023-05-10T02:17:51;11.70;;;5.55;;
74833;SDS011;63361;52.384;20.930;2023-05-10T02:20:19;9.85;;;5.35;;
74833;SDS011;63361;52.384;20.930;2023-05-10T02:22:45;10.57;;;5.20;;
74833;SDS011;63361;52.384;20.930;2023-05-10T02:25:14;9.70;;;4.95;;
74833;SDS011;63361;52.384;20.930;2023-05-10T02:27:40;14.20;;;5.25;;
74833;SDS011;63361;52.384;20.930;2023-05-10T02:30:07;11.73;;;5.13;;
74833;SDS011;63361;52.384;20.930;2023-05-10T02:32:34;11.25;;;5.13;;
74833;SDS011;63361;52.384;20.930;2023-05-10T02:35:01;11.67;;;5.10;;
74833;SDS011;63361;52.384;20.930;2023-05-10T02:37:28;13.00;;;5.18;;
74833;SDS011;63361;52.384;20.930;2023-05-10T02:39:54;9.48;;;5.35;;
74833;SDS011;63361;52.384;20.930;2023-05-10T02:42:25;10.25;;;5.07;;
74833;SDS011;63361;52.384;20.930;2023-05-10T02:44:53;11.32;;;5.57;;
74833;SDS011;63361;52.384;20.930;2023-05-10T02:47:24;10.43;;;5.13;;
74833;SDS011;63361;52.384;20.930;2023-05-10T02:49:50;12.63;;;5.30;;
74833;SDS011;63361;52.384;20.930;2023-05-10T02:52:16;10.03;;;5.00;;
74833;SDS011;63361;52.384;20.930;2023-05-10T02:54:48;11.13;;;5.45;;
74833;SDS011;63361;52.384;20.930;2023-05-10T02:57:16;11.63;;;5.53;;
74833;SDS011;63361;52.384;20.930;2023-05-10T02:59:45;12.00;;;4.67;;
74833;SDS011;63361;52.384;20.930;2023-05-10T03:02:12;9.40;;;4.75;;
74833;SDS011;63361;52.384;20.930;2023-05-10T03:04:37;10.20;;;4.68;;
74833;SDS011;63361;52.384;20.930;2023-05-10T03:07:03;10.93;;;5.10;;
74833;SDS011;63361;52.384;20.930;2023-05-10T03:09:28;10.37;;;4.80;;
74833;SDS011;63361;52.384;20.930;2023-05-10T03:12:02;10.55;;;4.55;;
74833;SDS011;63361;52.384;20.930;2023-05-10T03:17:30;9.50;;;4.80;;
74833;SDS011;63361;52.384;20.930;2023-05-10T03:20:06;8.45;;;4.80;;
74833;SDS011;63361;52.384;20.930;2023-05-10T03:22:44;10.60;;;5.00;;
74833;SDS011;63361;52.384;20.930;2023-05-10T03:25:12;10.63;;;4.57;;
74833;SDS011;63361;52.384;20.930;2023-05-10T03:27:41;9.73;;;4.35;;
74833;SDS011;63361;52.384;20.930;2023-05-10T03:30:09;10.00;;;4.23;;
74833;SDS011;63361;52.384;20.930;2023-05-10T03:32:36;8.88;;;4.70;;
74833;SDS011;63361;52.384;20.930;2023-05-10T03:35:08;11.30;;;4.75;;
74833;SDS011;63361;52.384;20.930;2023-05-10T03:37:34;10.75;;;4.97;;
74833;SDS011;63361;52.384;20.930;2023-05-10T03:40:00;9.17;;;4.27;;
74833;SDS011;63361;52.384;20.930;2023-05-10T03:42:25;8.27;;;4.82;;
74833;SDS011;63361;52.384;20.930;2023-05-10T03:44:51;8.87;;;4.67;;
74833;SDS011;63361;52.384;20.930;2023-05-10T03:47:16;9.03;;;4.27;;
74833;SDS011;63361;52.384;20.930;2023-05-10T03:49:41;9.83;;;4.53;;
74833;SDS011;63361;52.384;20.930;2023-05-10T03:52:07;9.80;;;4.07;;
74833;SDS011;63361;52.384;20.930;2023-05-10T03:54:32;11.30;;;3.77;;
74833;SDS011;63361;52.384;20.930;2023-05-10T03:56:57;8.43;;;4.03;;
74833;SDS011;63361;52.384;20.930;2023-05-10T03:59:23;10.67;;;4.17;;
74833;SDS011;63361;52.384;20.930;2023-05-10T04:01:48;8.68;;;3.28;;
74833;SDS011;63361;52.384;20.930;2023-05-10T04:04:13;8.50;;;3.97;;
74833;SDS011;63361;52.384;20.930;2023-05-10T04:06:38;10.77;;;4.10;;
74833;SDS011;63361;52.384;20.930;2023-05-10T04:09:04;10.80;;;4.10;;
74833;SDS011;63361;52.384;20.930;2023-05-10T04:11:29;8.27;;;4.10;;
74833;SDS011;63361;52.384;20.930;2023-05-10T04:13:55;7.87;;;3.50;;
74833;SDS011;63361;52.384;20.930;2023-05-10T04:16:20;9.70;;;3.67;;
74833;SDS011;63361;52.384;20.930;2023-05-10T04:18:45;6.40;;;3.63;;
74833;SDS011;63361;52.384;20.930;2023-05-10T04:21:11;11.87;;;3.80;;
74833;SDS011;63361;52.384;20.930;2023-05-10T04:23:38;8.07;;;3.92;;
74833;SDS011;63361;52.384;20.930;2023-05-10T04:26:03;7.10;;;3.50;;
74833;SDS011;63361;52.384;20.930;2023-05-10T04:28:29;7.87;;;3.43;;
74833;SDS011;63361;52.384;20.930;2023-05-10T04:31:00;10.10;;;3.60;;
74833;SDS011;63361;52.384;20.930;2023-05-10T04:33:29;8.48;;;3.50;;
74833;SDS011;63361;52.384;20.930;2023-05-10T04:35:54;7.32;;;3.88;;
74833;SDS011;63361;52.384;20.930;2023-05-10T04:38:20;8.87;;;3.60;;
74833;SDS011;63361;52.384;20.930;2023-05-10T04:40:45;7.47;;;3.70;;
74833;SDS011;63361;52.384;20.930;2023-05-10T04:43:10;9.77;;;3.80;;
74833;SDS011;63361;52.384;20.930;2023-05-10T04:45:36;9.40;;;3.60;;
74833;SDS011;63361;52.384;20.930;2023-05-10T04:48:01;8.00;;;3.30;;
74833;SDS011;63361;52.384;20.930;2023-05-10T04:50:26;9.53;;;3.57;;
74833;SDS011;63361;52.384;20.930;2023-05-10T04:52:51;6.60;;;3.57;;
74833;SDS011;63361;52.384;20.930;2023-05-10T04:55:17;7.25;;;3.03;;
74833;SDS011;63361;52.384;20.930;2023-05-10T04:57:42;6.90;;;3.10;;
74833;SDS011;63361;52.384;20.930;2023-05-10T05:00:08;7.67;;;3.40;;
74833;SDS011;63361;52.384;20.930;2023-05-10T05:02:33;9.23;;;3.42;;
74833;SDS011;63361;52.384;20.930;2023-05-10T05:04:59;9.27;;;3.23;;
74833;SDS011;63361;52.384;20.930;2023-05-10T05:07:24;7.47;;;3.23;;
74833;SDS011;63361;52.384;20.930;2023-05-10T05:09:50;8.87;;;3.30;;
74833;SDS011;63361;52.384;20.930;2023-05-10T05:12:15;10.73;;;3.78;;
74833;SDS011;63361;52.384;20.930;2023-05-10T05:14:40;8.80;;;3.73;;
74833;SDS011;63361;52.384;20.930;2023-05-10T05:17:06;7.97;;;3.17;;
74833;SDS011;63361;52.384;20.930;2023-05-10T05:19:31;10.73;;;3.23;;
74833;SDS011;63361;52.384;20.930;2023-05-10T05:21:57;8.67;;;3.23;;
74833;SDS011;63361;52.384;20.930;2023-05-10T05:24:22;8.17;;;3.17;;
74833;SDS011;63361;52.384;20.930;2023-05-10T05:26:48;7.82;;;3.10;;
74833;SDS011;63361;52.384;20.930;2023-05-10T05:29:13;8.23;;;2.90;;
74833;SDS011;63361;52.384;20.930;2023-05-10T05:31:38;9.43;;;3.30;;
74833;SDS011;63361;52.384;20.930;2023-05-10T05:34:04;7.95;;;2.90;;
74833;SDS011;63361;52.384;20.930;2023-05-10T05:36:29;6.27;;;2.87;;
74833;SDS011;63361;52.384;20.930;2023-05-10T05:38:56;9.60;;;3.13;;
74833;SDS011;63361;52.384;20.930;2023-05-10T05:41:22;7.30;;;2.93;;
74833;SDS011;63361;52.384;20.930;2023-05-10T05:43:48;6.57;;;3.00;;
74833;SDS011;63361;52.384;20.930;2023-05-10T05:46:14;8.57;;;3.27;;
74833;SDS011;63361;52.384;20.930;2023-05-10T05:48:39;7.50;;;3.23;;
74833;SDS011;63361;52.384;20.930;2023-05-10T05:51:05;9.57;;;2.83;;
74833;SDS011;63361;52.384;20.930;2023-05-10T05:53:30;8.53;;;3.20;;
74833;SDS011;63361;52.384;20.930;2023-05-10T05:55:56;10.23;;;2.97;;
74833;SDS011;63361;52.384;20.930;2023-05-10T05:58:23;11.57;;;3.00;;
74833;SDS011;63361;52.384;20.930;2023-05-10T06:00:50;7.68;;;2.72;;
74833;SDS011;63361;52.384;20.930;2023-05-10T06:03:16;6.00;;;2.90;;
74833;SDS011;63361;52.384;20.930;2023-05-10T06:05:42;7.97;;;3.30;;
74833;SDS011;63361;52.384;20.930;2023-05-10T06:08:07;7.13;;;2.73;;
74833;SDS011;63361;52.384;20.930;2023-05-10T06:10:33;8.50;;;3.03;;
74833;SDS011;63361;52.384;20.930;2023-05-10T06:12:58;5.27;;;2.27;;
74833;SDS011;63361;52.384;20.930;2023-05-10T06:15:24;6.23;;;2.30;;
74833;SDS011;63361;52.384;20.930;2023-05-10T06:17:49;7.63;;;2.83;;
74833;SDS011;63361;52.384;20.930;2023-05-10T06:20:15;6.97;;;2.73;;
74833;SDS011;63361;52.384;20.930;2023-05-10T06:22:40;9.07;;;3.30;;
74833;SDS011;63361;52.384;20.930;2023-05-10T06:25:06;9.45;;;2.80;;
74833;SDS011;63361;52.384;20.930;2023-05-10T06:27:32;6.33;;;2.40;;
74833;SDS011;63361;52.384;20.930;2023-05-10T06:29:57;6.97;;;2.93;;
74833;SDS011;63361;52.384;20.930;2023-05-10T06:32:23;9.57;;;3.30;;
74833;SDS011;63361;52.384;20.930;2023-05-10T06:34:48;9.00;;;2.60;;
74833;SDS011;63361;52.384;20.930;2023-05-10T06:37:13;5.30;;;2.20;;
74833;SDS011;63361;52.384;20.930;2023-05-10T06:39:39;7.50;;;3.50;;
74833;SDS011;63361;52.384;20.930;2023-05-10T06:42:04;7.60;;;2.57;;
74833;SDS011;63361;52.384;20.930;2023-05-10T06:44:30;5.53;;;2.30;;
74833;SDS011;63361;52.384;20.930;2023-05-10T06:46:55;6.33;;;2.30;;
74833;SDS011;63361;52.384;20.930;2023-05-10T06:49:20;5.87;;;2.13;;
74833;SDS011;63361;52.384;20.930;2023-05-10T06:51:46;5.67;;;2.07;;
74833;SDS011;63361;52.384;20.930;2023-05-10T06:54:11;7.50;;;2.20;;
74833;SDS011;63361;52.384;20.930;2023-05-10T06:56:37;8.10;;;2.30;;
74833;SDS011;63361;52.384;20.930;2023-05-10T06:59:02;6.50;;;2.40;;
74833;SDS011;63361;52.384;20.930;2023-05-10T07:01:27;7.47;;;2.57;;
74833;SDS011;63361;52.384;20.930;2023-05-10T07:03:53;5.00;;;1.93;;
74833;SDS011;63361;52.384;20.930;2023-05-10T07:06:18;7.50;;;2.30;;
74833;SDS011;63361;52.384;20.930;2023-05-10T07:08:43;8.45;;;2.28;;
74833;SDS011;63361;52.384;20.930;2023-05-10T07:11:09;6.00;;;1.97;;
74833;SDS011;63361;52.384;20.930;2023-05-10T07:13:35;4.23;;;1.80;;
74833;SDS011;63361;52.384;20.930;2023-05-10T07:16:01;6.20;;;1.75;;
74833;SDS011;63361;52.384;20.930;2023-05-10T07:18:27;5.97;;;2.08;;
74833;SDS011;63361;52.384;20.930;2023-05-10T07:20:52;5.67;;;2.10;;
74833;SDS011;63361;52.384;20.930;2023-05-10T07:23:18;7.27;;;2.10;;
74833;SDS011;63361;52.384;20.930;2023-05-10T07:25:47;6.73;;;2.40;;
74833;SDS011;63361;52.384;20.930;2023-05-10T07:28:14;6.53;;;2.30;;
74833;SDS011;63361;52.384;20.930;2023-05-10T07:30:40;6.22;;;2.30;;
74833;SDS011;63361;52.384;20.930;2023-05-10T07:33:06;7.63;;;2.67;;
74833;SDS011;63361;52.384;20.930;2023-05-10T07:35:32;5.72;;;1.60;;
74833;SDS011;63361;52.384;20.930;2023-05-10T07:37:57;6.10;;;1.63;;
74833;SDS011;63361;52.384;20.930;2023-05-10T07:40:23;5.23;;;1.90;;
74833;SDS011;63361;52.384;20.930;2023-05-10T07:42:48;6.30;;;1.80;;
74833;SDS011;63361;52.384;20.930;2023-05-10T07:45:13;3.90;;;1.60;;
74833;SDS011;63361;52.384;20.930;2023-05-10T07:47:38;4.80;;;1.80;;
74833;SDS011;63361;52.384;20.930;2023-05-10T07:50:04;5.27;;;1.63;;
74833;SDS011;63361;52.384;20.930;2023-05-10T07:52:30;8.05;;;1.90;;
74833;SDS011;63361;52.384;20.930;2023-05-10T07:54:55;4.93;;;1.50;;
74833;SDS011;63361;52.384;20.930;2023-05-10T07:57:21;6.55;;;1.83;;
74833;SDS011;63361;52.384;20.930;2023-05-10T07:59:47;7.90;;;2.10;;
74833;SDS011;63361;52.384;20.930;2023-05-10T08:02:12;5.33;;;1.70;;
74833;SDS011;63361;52.384;20.930;2023-05-10T08:04:37;4.30;;;1.70;;
74833;SDS011;63361;52.384;20.930;2023-05-10T08:07:03;7.60;;;1.80;;
74833;SDS011;63361;52.384;20.930;2023-05-10T08:09:28;5.87;;;1.70;;
74833;SDS011;63361;52.384;20.930;2023-05-10T08:11:53;4.10;;;1.50;;
74833;SDS011;63361;52.384;20.930;2023-05-10T08:14:19;4.40;;;1.47;;
74833;SDS011;63361;52.384;20.930;2023-05-10T08:16:44;8.63;;;1.57;;
74833;SDS011;63361;52.384;20.930;2023-05-10T08:19:10;5.75;;;1.70;;
74833;SDS011;63361;52.384;20.930;2023-05-10T08:21:35;5.53;;;1.43;;
74833;SDS011;63361;52.384;20.930;2023-05-10T08:24:01;6.57;;;1.77;;
74833;SDS011;63361;52.384;20.930;2023-05-10T08:26:27;5.25;;;1.65;;
74833;SDS011;63361;52.384;20.930;2023-05-10T08:28:52;13.00;;;3.30;;
74833;SDS011;63361;52.384;20.930;2023-05-10T08:31:17;4.50;;;1.40;;
74833;SDS011;63361;52.384;20.930;2023-05-10T08:33:43;6.03;;;1.73;;
74833;SDS011;63361;52.384;20.930;2023-05-10T08:36:09;5.77;;;1.63;;
74833;SDS011;63361;52.384;20.930;2023-05-10T08:38:34;4.10;;;1.95;;
74833;SDS011;63361;52.384;20.930;2023-05-10T08:41:00;6.17;;;1.30;;
74833;SDS011;63361;52.384;20.930;2023-05-10T08:43:27;4.65;;;1.50;;
74833;SDS011;63361;52.384;20.930;2023-05-10T08:45:54;5.93;;;1.70;;
74833;SDS011;63361;52.384;20.930;2023-05-10T08:48:22;5.73;;;1.50;;
74833;SDS011;63361;52.384;20.930;2023-05-10T08:50:48;4.32;;;1.58;;
74833;SDS011;63361;52.384;20.930;2023-05-10T08:53:17;4.30;;;1.52;;
74833;SDS011;63361;52.384;20.930;2023-05-10T08:55:44;5.45;;;1.73;;
74833;SDS011;63361;52.384;20.930;2023-05-10T08:58:11;7.45;;;1.70;;
74833;SDS011;63361;52.384;20.930;2023-05-10T09:00:36;4.83;;;1.50;;
74833;SDS011;63361;52.384;20.930;2023-05-10T09:03:05;6.50;;;1.50;;
74833;SDS011;63361;52.384;20.930;2023-05-10T09:05:31;6.47;;;1.67;;
74833;SDS011;63361;52.384;20.930;2023-05-10T09:07:56;4.20;;;1.55;;
74833;SDS011;63361;52.384;20.930;2023-05-10T09:10:22;4.33;;;1.50;;
74833;SDS011;63361;52.384;20.930;2023-05-10T09:12:50;4.47;;;1.50;;
74833;SDS011;63361;52.384;20.930;2023-05-10T09:15:16;7.40;;;1.53;;
74833;SDS011;63361;52.384;20.930;2023-05-10T09:17:44;6.38;;;1.50;;
74833;SDS011;63361;52.384;20.930;2023-05-10T09:20:10;7.10;;;1.85;;
74833;SDS011;63361;52.384;20.930;2023-05-10T09:22:35;4.03;;;1.70;;
74833;SDS011;63361;52.384;20.930;2023-05-10T09:25:09;5.05;;;1.98;;
74833;SDS011;63361;52.384;20.930;2023-05-10T09:27:37;5.97;;;1.52;;
74833;SDS011;63361;52.384;20.930;2023-05-10T09:30:03;7.13;;;1.50;;
74833;SDS011;63361;52.384;20.930;2023-05-10T09:32:43;4.30;;;1.70;;
74833;SDS011;63361;52.384;20.930;2023-05-10T09:35:10;3.27;;;1.33;;
74833;SDS011;63361;52.384;20.930;2023-05-10T09:37:38;3.75;;;1.40;;
74833;SDS011;63361;52.384;20.930;2023-05-10T09:40:06;3.58;;;1.40;;
74833;SDS011;63361;52.384;20.930;2023-05-10T09:42:33;5.35;;;1.80;;
74833;SDS011;63361;52.384;20.930;2023-05-10T09:45:00;5.50;;;1.38;;
74833;SDS011;63361;52.384;20.930;2023-05-10T09:47:29;5.27;;;1.50;;
74833;SDS011;63361;52.384;20.930;2023-05-10T09:49:56;3.83;;;1.15;;
74833;SDS011;63361;52.384;20.930;2023-05-10T09:52:27;4.95;;;1.70;;
74833;SDS011;63361;52.384;20.930;2023-05-10T09:54:53;3.42;;;1.15;;
74833;SDS011;63361;52.384;20.930;2023-05-10T09:57:23;12.53;;;1.77;;
74833;SDS011;63361;52.384;20.930;2023-05-10T09:59:50;9.18;;;1.88;;
74833;SDS011;63361;52.384;20.930;2023-05-10T10:02:15;5.40;;;1.58;;
74833;SDS011;63361;52.384;20.930;2023-05-10T10:04:42;8.73;;;1.70;;
74833;SDS011;63361;52.384;20.930;2023-05-10T10:07:08;5.57;;;2.00;;
74833;SDS011;63361;52.384;20.930;2023-05-10T10:09:34;6.45;;;1.80;;
74833;SDS011;63361;52.384;20.930;2023-05-10T10:12:00;5.93;;;1.60;;
74833;SDS011;63361;52.384;20.930;2023-05-10T10:14:27;4.55;;;1.70;;
74833;SDS011;63361;52.384;20.930;2023-05-10T10:16:53;4.70;;;1.70;;
74833;SDS011;63361;52.384;20.930;2023-05-10T10:19:19;7.03;;;1.50;;
74833;SDS011;63361;52.384;20.930;2023-05-10T10:21:45;4.55;;;1.40;;
74833;SDS011;63361;52.384;20.930;2023-05-10T10:24:16;6.45;;;1.50;;
74833;SDS011;63361;52.384;20.930;2023-05-10T10:26:42;3.60;;;1.53;;
74833;SDS011;63361;52.384;20.930;2023-05-10T10:31:47;5.80;;;1.40;;
74833;SDS011;63361;52.384;20.930;2023-05-10T10:34:28;4.35;;;1.60;;
74833;SDS011;63361;52.384;20.930;2023-05-10T10:36:55;5.57;;;1.60;;
74833;SDS011;63361;52.384;20.930;2023-05-10T10:39:22;6.53;;;1.60;;
74833;SDS011;63361;52.384;20.930;2023-05-10T10:52:27;6.60;;;1.83;;
74833;SDS011;63361;52.384;20.930;2023-05-10T10:57:32;4.47;;;1.65;;
74833;SDS011;63361;52.384;20.930;2023-05-10T11:02:45;6.35;;;1.85;;
74833;SDS011;63361;52.384;20.930;2023-05-10T11:05:23;4.55;;;1.60;;
74833;SDS011;63361;52.384;20.930;2023-05-10T11:07:58;6.03;;;1.70;;
74833;SDS011;63361;52.384;20.930;2023-05-10T11:10:25;7.10;;;1.80;;
74833;SDS011;63361;52.384;20.930;2023-05-10T11:15:38;3.63;;;1.52;;
74833;SDS011;63361;52.384;20.930;2023-05-10T11:18:20;5.18;;;1.60;;
74833;SDS011;63361;52.384;20.930;2023-05-10T11:23:22;4.53;;;1.45;;
74833;SDS011;63361;52.384;20.930;2023-05-10T11:25:48;4.97;;;1.83;;
74833;SDS011;63361;52.384;20.930;2023-05-10T11:28:16;6.35;;;2.00;;
74833;SDS011;63361;52.384;20.930;2023-05-10T11:30:43;5.97;;;2.70;;
74833;SDS011;63361;52.384;20.930;2023-05-10T11:33:09;4.40;;;1.90;;
74833;SDS011;63361;52.384;20.930;2023-05-10T11:35:41;9.75;;;1.75;;
74833;SDS011;63361;52.384;20.930;2023-05-10T11:38:07;10.85;;;2.20;;
74833;SDS011;63361;52.384;20.930;2023-05-10T11:40:36;6.00;;;1.50;;
74833;SDS011;63361;52.384;20.930;2023-05-10T11:43:02;4.38;;;1.70;;
74833;SDS011;63361;52.384;20.930;2023-05-10T11:45:28;8.50;;;1.63;;
74833;SDS011;63361;52.384;20.930;2023-05-10T11:47:57;7.47;;;1.67;;
74833;SDS011;63361;52.384;20.930;2023-05-10T11:50:23;4.90;;;1.40;;
74833;SDS011;63361;52.384;20.930;2023-05-10T11:52:53;5.00;;;1.90;;
74833;SDS011;63361;52.384;20.930;2023-05-10T11:55:22;7.10;;;2.15;;
74833;SDS011;63361;52.384;20.930;2023-05-10T11:57:51;14.27;;;2.00;;
74833;SDS011;63361;52.384;20.930;2023-05-10T12:00:17;6.78;;;1.67;;
74833;SDS011;63361;52.384;20.930;2023-05-10T12:02:42;6.30;;;2.10;;
74833;SDS011;63361;52.384;20.930;2023-05-10T12:05:08;6.43;;;2.00;;
74833;SDS011;63361;52.384;20.930;2023-05-10T12:07:35;5.07;;;1.98;;
74833;SDS011;63361;52.384;20.930;2023-05-10T12:10:07;6.70;;;1.70;;
74833;SDS011;63361;52.384;20.930;2023-05-10T12:12:41;7.10;;;1.80;;
74833;SDS011;63361;52.384;20.930;2023-05-10T12:15:26;5.25;;;2.08;;
74833;SDS011;63361;52.384;20.930;2023-05-10T12:17:52;4.87;;;1.90;;
74833;SDS011;63361;52.384;20.930;2023-05-10T12:20:21;7.15;;;1.70;;
74833;SDS011;63361;52.384;20.930;2023-05-10T12:22:51;5.97;;;1.90;;
74833;SDS011;63361;52.384;20.930;2023-05-10T12:25:24;6.50;;;2.30;;
74833;SDS011;63361;52.384;20.930;2023-05-10T12:27:55;5.40;;;1.70;;
74833;SDS011;63361;52.384;20.930;2023-05-10T12:30:22;7.93;;;2.00;;
74833;SDS011;63361;52.384;20.930;2023-05-10T12:32:49;5.05;;;1.88;;
74833;SDS011;63361;52.384;20.930;2023-05-10T12:35:14;9.73;;;1.90;;
74833;SDS011;63361;52.384;20.930;2023-05-10T12:37:41;10.38;;;1.83;;
74833;SDS011;63361;52.384;20.930;2023-05-10T12:40:08;5.50;;;1.60;;
74833;SDS011;63361;52.384;20.930;2023-05-10T12:42:36;6.82;;;1.88;;
74833;SDS011;63361;52.384;20.930;2023-05-10T12:45:02;5.18;;;1.73;;
74833;SDS011;63361;52.384;20.930;2023-05-10T12:47:28;5.27;;;1.57;;
74833;SDS011;63361;52.384;20.930;2023-05-10T12:49:54;5.25;;;1.77;;
74833;SDS011;63361;52.384;20.930;2023-05-10T12:52:19;6.67;;;1.70;;
74833;SDS011;63361;52.384;20.930;2023-05-10T12:54:45;4.90;;;1.63;;
74833;SDS011;63361;52.384;20.930;2023-05-10T12:57:10;5.13;;;1.67;;
74833;SDS011;63361;52.384;20.930;2023-05-10T12:59:36;5.43;;;1.80;;
74833;SDS011;63361;52.384;20.930;2023-05-10T13:02:01;4.57;;;1.73;;
74833;SDS011;63361;52.384;20.930;2023-05-10T13:04:26;3.90;;;1.40;;
74833;SDS011;63361;52.384;20.930;2023-05-10T13:06:52;8.30;;;2.00;;
74833;SDS011;63361;52.384;20.930;2023-05-10T13:09:17;5.33;;;1.80;;
74833;SDS011;63361;52.384;20.930;2023-05-10T13:11:42;5.00;;;1.48;;
74833;SDS011;63361;52.384;20.930;2023-05-10T13:14:08;4.97;;;1.60;;
74833;SDS011;63361;52.384;20.930;2023-05-10T13:16:33;4.17;;;1.80;;
74833;SDS011;63361;52.384;20.930;2023-05-10T13:18:58;5.43;;;1.60;;
74833;SDS011;63361;52.384;20.930;2023-05-10T13:21:24;4.10;;;1.67;;
74833;SDS011;63361;52.384;20.930;2023-05-10T13:23:50;6.40;;;1.75;;
74833;SDS011;63361;52.384;20.930;2023-05-10T13:26:16;3.92;;;1.40;;
74833;SDS011;63361;52.384;20.930;2023-05-10T13:28:41;8.20;;;1.60;;
74833;SDS011;63361;52.384;20.930;2023-05-10T13:31:06;4.03;;;1.60;;
74833;SDS011;63361;52.384;20.930;2023-05-10T13:33:32;9.38;;;2.13;;
74833;SDS011;63361;52.384;20.930;2023-05-10T13:35:57;6.03;;;1.63;;
74833;SDS011;63361;52.384;20.930;2023-05-10T13:38:23;8.87;;;1.80;;
74833;SDS011;63361;52.384;20.930;2023-05-10T13:40:48;7.43;;;1.90;;
74833;SDS011;63361;52.384;20.930;2023-05-10T13:43:17;6.18;;;2.08;;
74833;SDS011;63361;52.384;20.930;2023-05-10T13:45:42;3.97;;;1.70;;
74833;SDS011;63361;52.384;20.930;2023-05-10T13:48:07;4.37;;;2.00;;
74833;SDS011;63361;52.384;20.930;2023-05-10T13:50:33;8.00;;;2.20;;
74833;SDS011;63361;52.384;20.930;2023-05-10T13:52:58;6.77;;;1.83;;
74833;SDS011;63361;52.384;20.930;2023-05-10T13:55:24;6.90;;;1.80;;
74833;SDS011;63361;52.384;20.930;2023-05-10T13:57:49;4.30;;;1.90;;
74833;SDS011;63361;52.384;20.930;2023-05-10T14:00:15;8.33;;;2.10;;
74833;SDS011;63361;52.384;20.930;2023-05-10T14:02:41;4.03;;;1.75;;
74833;SDS011;63361;52.384;20.930;2023-05-10T14:05:06;4.33;;;1.80;;
74833;SDS011;63361;52.384;20.930;2023-05-10T14:07:32;6.32;;;1.70;;
74833;SDS011;63361;52.384;20.930;2023-05-10T14:09:57;4.93;;;1.87;;
74833;SDS011;63361;52.384;20.930;2023-05-10T14:12:23;5.57;;;1.83;;
74833;SDS011;63361;52.384;20.930;2023-05-10T14:14:48;5.03;;;1.50;;
74833;SDS011;63361;52.384;20.930;2023-05-10T14:17:13;6.60;;;1.67;;
74833;SDS011;63361;52.384;20.930;2023-05-10T14:19:39;5.23;;;1.80;;
74833;SDS011;63361;52.384;20.930;2023-05-10T14:22:04;4.05;;;1.90;;
74833;SDS011;63361;52.384;20.930;2023-05-10T14:24:29;6.73;;;1.80;;
74833;SDS011;63361;52.384;20.930;2023-05-10T14:26:55;5.57;;;1.70;;
74833;SDS011;63361;52.384;20.930;2023-05-10T14:29:20;5.03;;;1.83;;
74833;SDS011;63361;52.384;20.930;2023-05-10T14:31:47;3.40;;;1.60;;
74833;SDS011;63361;52.384;20.930;2023-05-10T14:34:12;5.90;;;1.73;;
74833;SDS011;63361;52.384;20.930;2023-05-10T14:36:37;5.17;;;1.50;;
74833;SDS011;63361;52.384;20.930;2023-05-10T14:39:03;5.68;;;1.73;;
74833;SDS011;63361;52.384;20.930;2023-05-10T14:41:29;4.13;;;1.70;;
74833;SDS011;63361;52.384;20.930;2023-05-10T14:43:55;4.50;;;1.65;;
74833;SDS011;63361;52.384;20.930;2023-05-10T14:46:20;4.27;;;1.57;;
74833;SDS011;63361;52.384;20.930;2023-05-10T14:48:45;5.45;;;1.50;;
74833;SDS011;63361;52.384;20.930;2023-05-10T14:51:11;4.33;;;1.70;;
74833;SDS011;63361;52.384;20.930;2023-05-10T14:53:36;5.23;;;1.60;;
74833;SDS011;63361;52.384;20.930;2023-05-10T14:56:02;3.67;;;1.50;;
74833;SDS011;63361;52.384;20.930;2023-05-10T14:58:27;6.22;;;1.60;;
74833;SDS011;63361;52.384;20.930;2023-05-10T15:00:53;7.50;;;1.60;;
74833;SDS011;63361;52.384;20.930;2023-05-10T15:03:18;5.00;;;1.77;;